sensor_id;sensor_type;location;lat;lon;timestamp;P1;durP1;ratioP1;P2;durP2;ratioP2
18796;SDS011;9526;52.612;13.300;2024-02-16T00:00:32;6.95;;;4.45;;
18796;SDS011;9526;52.612;13.300;2024-02-16T00:02:57;8.00;;;5.35;;
18796;SDS011;9526;52.612;13.300;2024-02-16T00:05:22;8.20;;;4.85;;
18796;SDS011;9526;52.612;13.300;2024-02-16T00:07:46;9.00;;;5.00;;
18796;SDS011;9526;52.612;13.300;2024-02-16T00:10:10;16.15;;;4.70;;
18796;SDS011;9526;52.612;13.300;2024-02-16T00:12:34;7.82;;;4.95;;
18796;SDS011;9526;52.612;13.300;2024-02-16T00:15:02;7.85;;;4.97;;
18796;SDS011;9526;52.612;13.300;2024-02-16T00:17:26;7.60;;;4.90;;
18796;SDS011;9526;52.612;13.300;2024-02-16T00:19:52;8.55;;;5.75;;
18796;SDS011;9526;52.612;13.300;2024-02-16T00:22:16;14.38;;;5.13;;
18796;SDS011;9526;52.612;13.300;2024-02-16T00:24:40;10.07;;;5.22;;
18796;SDS011;9526;52.612;13.300;2024-02-16T00:27:04;9.07;;;5.22;;
18796;SDS011;9526;52.612;13.300;2024-02-16T00:29:28;8.90;;;5.50;;
18796;SDS011;9526;52.612;13.300;2024-02-16T00:31:53;7.90;;;4.95;;
18796;SDS011;9526;52.612;13.300;2024-02-16T00:34:17;10.23;;;4.88;;
18796;SDS011;9526;52.612;13.300;2024-02-16T00:36:42;9.55;;;5.43;;
18796;SDS011;9526;52.612;13.300;2024-02-16T00:39:06;9.20;;;5.30;;
18796;SDS011;9526;52.612;13.300;2024-02-16T00:41:30;8.48;;;5.50;;
18796;SDS011;9526;52.612;13.300;2024-02-16T00:43:53;13.90;;;6.05;;
18796;SDS011;9526;52.612;13.300;2024-02-16T00:46:17;8.55;;;5.32;;
18796;SDS011;9526;52.612;13.300;2024-02-16T00:48:41;9.45;;;5.80;;
18796;SDS011;9526;52.612;13.300;2024-02-16T00:51:05;8.68;;;5.47;;
18796;SDS011;9526;52.612;13.300;2024-02-16T00:53:30;9.65;;;5.78;;
18796;SDS011;9526;52.612;13.300;2024-02-16T00:55:54;9.25;;;5.55;;
18796;SDS011;9526;52.612;13.300;2024-02-16T00:58:17;9.80;;;6.10;;
18796;SDS011;9526;52.612;13.300;2024-02-16T01:00:42;9.95;;;5.90;;
18796;SDS011;9526;52.612;13.300;2024-02-16T01:03:06;10.15;;;6.15;;
18796;SDS011;9526;52.612;13.300;2024-02-16T01:05:30;9.40;;;5.82;;
18796;SDS011;9526;52.612;13.300;2024-02-16T01:07:54;8.57;;;5.72;;
18796;SDS011;9526;52.612;13.300;2024-02-16T01:10:19;10.15;;;6.13;;
18796;SDS011;9526;52.612;13.300;2024-02-16T01:12:44;8.27;;;5.40;;
18796;SDS011;9526;52.612;13.300;2024-02-16T01:15:08;12.63;;;6.40;;
18796;SDS011;9526;52.612;13.300;2024-02-16T01:17:33;9.98;;;6.07;;
18796;SDS011;9526;52.612;13.300;2024-02-16T01:19:57;10.73;;;5.78;;
18796;SDS011;9526;52.612;13.300;2024-02-16T01:22:21;10.30;;;6.18;;
18796;SDS011;9526;52.612;13.300;2024-02-16T01:24:45;11.57;;;7.35;;
18796;SDS011;9526;52.612;13.300;2024-02-16T01:27:10;12.15;;;6.97;;
18796;SDS011;9526;52.612;13.300;2024-02-16T01:29:34;12.98;;;6.60;;
18796;SDS011;9526;52.612;13.300;2024-02-16T01:31:58;13.05;;;7.38;;
18796;SDS011;9526;52.612;13.300;2024-02-16T01:34:22;10.80;;;6.93;;
18796;SDS011;9526;52.612;13.300;2024-02-16T01:36:45;12.77;;;6.82;;
18796;SDS011;9526;52.612;13.300;2024-02-16T01:39:09;11.43;;;7.25;;
18796;SDS011;9526;52.612;13.300;2024-02-16T01:41:33;15.85;;;8.32;;
18796;SDS011;9526;52.612;13.300;2024-02-16T01:43:58;11.60;;;7.63;;
18796;SDS011;9526;52.612;13.300;2024-02-16T01:46:22;16.33;;;8.18;;
18796;SDS011;9526;52.612;13.300;2024-02-16T01:48:46;14.02;;;8.05;;
18796;SDS011;9526;52.612;13.300;2024-02-16T01:51:12;15.48;;;7.65;;
18796;SDS011;9526;52.612;13.300;2024-02-16T01:53:37;17.05;;;7.95;;
18796;SDS011;9526;52.612;13.300;2024-02-16T01:56:01;15.40;;;7.97;;
18796;SDS011;9526;52.612;13.300;2024-02-16T01:58:26;15.05;;;7.93;;
18796;SDS011;9526;52.612;13.300;2024-02-16T02:00:51;16.17;;;8.68;;
18796;SDS011;9526;52.612;13.300;2024-02-16T02:03:15;18.58;;;9.43;;
18796;SDS011;9526;52.612;13.300;2024-02-16T02:05:43;18.52;;;9.73;;
18796;SDS011;9526;52.612;13.300;2024-02-16T02:08:09;18.73;;;10.38;;
18796;SDS011;9526;52.612;13.300;2024-02-16T02:10:33;21.77;;;11.30;;
18796;SDS011;9526;52.612;13.300;2024-02-16T02:12:57;20.85;;;11.65;;
18796;SDS011;9526;52.612;13.300;2024-02-16T02:15:20;23.42;;;11.70;;
18796;SDS011;9526;52.612;13.300;2024-02-16T02:17:46;22.27;;;12.27;;
18796;SDS011;9526;52.612;13.300;2024-02-16T02:20:10;26.33;;;12.88;;
18796;SDS011;9526;52.612;13.300;2024-02-16T02:22:36;22.15;;;12.75;;
18796;SDS011;9526;52.612;13.300;2024-02-16T02:25:00;24.50;;;12.27;;
18796;SDS011;9526;52.612;13.300;2024-02-16T02:27:23;25.70;;;12.88;;
18796;SDS011;9526;52.612;13.300;2024-02-16T02:29:48;25.10;;;12.55;;
18796;SDS011;9526;52.612;13.300;2024-02-16T02:32:11;28.30;;;12.88;;
18796;SDS011;9526;52.612;13.300;2024-02-16T02:34:35;30.67;;;14.05;;
18796;SDS011;9526;52.612;13.300;2024-02-16T02:36:59;21.80;;;12.43;;
18796;SDS011;9526;52.612;13.300;2024-02-16T02:39:25;23.13;;;12.68;;
18796;SDS011;9526;52.612;13.300;2024-02-16T02:41:49;21.45;;;12.20;;
18796;SDS011;9526;52.612;13.300;2024-02-16T02:44:12;23.33;;;12.77;;
18796;SDS011;9526;52.612;13.300;2024-02-16T02:46:36;25.25;;;13.05;;
18796;SDS011;9526;52.612;13.300;2024-02-16T02:49:00;24.30;;;12.68;;
18796;SDS011;9526;52.612;13.300;2024-02-16T02:51:25;27.17;;;13.38;;
18796;SDS011;9526;52.612;13.300;2024-02-16T02:53:49;23.55;;;12.98;;
18796;SDS011;9526;52.612;13.300;2024-02-16T02:56:14;22.42;;;12.60;;
18796;SDS011;9526;52.612;13.300;2024-02-16T02:58:38;24.75;;;12.93;;
18796;SDS011;9526;52.612;13.300;2024-02-16T03:01:02;26.20;;;12.88;;
18796;SDS011;9526;52.612;13.300;2024-02-16T03:03:29;21.08;;;11.73;;
18796;SDS011;9526;52.612;13.300;2024-02-16T03:05:53;25.58;;;13.35;;
18796;SDS011;9526;52.612;13.300;2024-02-16T03:08:16;21.73;;;12.38;;
18796;SDS011;9526;52.612;13.300;2024-02-16T03:10:40;24.77;;;12.00;;
18796;SDS011;9526;52.612;13.300;2024-02-16T03:13:07;23.00;;;12.00;;
18796;SDS011;9526;52.612;13.300;2024-02-16T03:15:31;27.27;;;12.98;;
18796;SDS011;9526;52.612;13.300;2024-02-16T03:17:55;24.98;;;12.68;;
18796;SDS011;9526;52.612;13.300;2024-02-16T03:20:19;24.08;;;12.23;;
18796;SDS011;9526;52.612;13.300;2024-02-16T03:22:42;25.15;;;13.43;;
18796;SDS011;9526;52.612;13.300;2024-02-16T03:25:06;23.75;;;12.50;;
18796;SDS011;9526;52.612;13.300;2024-02-16T03:27:31;23.70;;;11.88;;
18796;SDS011;9526;52.612;13.300;2024-02-16T03:29:56;25.95;;;12.35;;
18796;SDS011;9526;52.612;13.300;2024-02-16T03:32:21;24.95;;;13.18;;
18796;SDS011;9526;52.612;13.300;2024-02-16T03:34:45;24.23;;;13.02;;
18796;SDS011;9526;52.612;13.300;2024-02-16T03:37:09;25.38;;;12.52;;
18796;SDS011;9526;52.612;13.300;2024-02-16T03:39:32;24.88;;;13.48;;
18796;SDS011;9526;52.612;13.300;2024-02-16T03:41:56;24.52;;;13.00;;
18796;SDS011;9526;52.612;13.300;2024-02-16T03:44:20;24.90;;;13.63;;
18796;SDS011;9526;52.612;13.300;2024-02-16T03:46:45;27.25;;;13.57;;
18796;SDS011;9526;52.612;13.300;2024-02-16T03:49:09;23.27;;;13.52;;
18796;SDS011;9526;52.612;13.300;2024-02-16T03:51:33;20.85;;;12.30;;
18796;SDS011;9526;52.612;13.300;2024-02-16T03:53:57;28.00;;;13.50;;
18796;SDS011;9526;52.612;13.300;2024-02-16T03:56:21;24.17;;;12.90;;
18796;SDS011;9526;52.612;13.300;2024-02-16T03:58:45;26.10;;;13.25;;
18796;SDS011;9526;52.612;13.300;2024-02-16T04:01:09;26.58;;;12.63;;
18796;SDS011;9526;52.612;13.300;2024-02-16T04:03:34;23.25;;;13.13;;
18796;SDS011;9526;52.612;13.300;2024-02-16T04:05:58;24.92;;;13.30;;
18796;SDS011;9526;52.612;13.300;2024-02-16T04:08:23;25.90;;;13.32;;
18796;SDS011;9526;52.612;13.300;2024-02-16T04:10:47;24.45;;;13.25;;
18796;SDS011;9526;52.612;13.300;2024-02-16T04:13:10;24.15;;;13.23;;
18796;SDS011;9526;52.612;13.300;2024-02-16T04:15:34;27.80;;;13.80;;
18796;SDS011;9526;52.612;13.300;2024-02-16T04:17:58;24.80;;;13.52;;
18796;SDS011;9526;52.612;13.300;2024-02-16T04:20:23;23.58;;;13.55;;
18796;SDS011;9526;52.612;13.300;2024-02-16T04:22:47;23.27;;;12.73;;
18796;SDS011;9526;52.612;13.300;2024-02-16T04:25:11;24.35;;;13.70;;
18796;SDS011;9526;52.612;13.300;2024-02-16T04:27:35;24.98;;;13.10;;
18796;SDS011;9526;52.612;13.300;2024-02-16T04:29:59;25.80;;;13.68;;
18796;SDS011;9526;52.612;13.300;2024-02-16T04:32:23;25.58;;;13.05;;
18796;SDS011;9526;52.612;13.300;2024-02-16T04:34:47;32.10;;;13.20;;
18796;SDS011;9526;52.612;13.300;2024-02-16T04:37:12;26.70;;;13.13;;
18796;SDS011;9526;52.612;13.300;2024-02-16T04:39:36;31.88;;;14.10;;
18796;SDS011;9526;52.612;13.300;2024-02-16T04:42:00;26.05;;;12.98;;
18796;SDS011;9526;52.612;13.300;2024-02-16T04:44:24;24.50;;;12.68;;
18796;SDS011;9526;52.612;13.300;2024-02-16T04:46:50;24.17;;;13.48;;
18796;SDS011;9526;52.612;13.300;2024-02-16T04:49:14;23.42;;;12.13;;
18796;SDS011;9526;52.612;13.300;2024-02-16T04:51:39;27.13;;;12.98;;
18796;SDS011;9526;52.612;13.300;2024-02-16T04:54:04;21.85;;;12.43;;
18796;SDS011;9526;52.612;13.300;2024-02-16T04:56:28;23.70;;;13.63;;
18796;SDS011;9526;52.612;13.300;2024-02-16T04:58:52;23.33;;;12.00;;
18796;SDS011;9526;52.612;13.300;2024-02-16T05:01:16;24.02;;;13.38;;
18796;SDS011;9526;52.612;13.300;2024-02-16T05:03:40;22.20;;;12.18;;
18796;SDS011;9526;52.612;13.300;2024-02-16T05:06:04;26.85;;;13.13;;
18796;SDS011;9526;52.612;13.300;2024-02-16T05:08:28;22.05;;;12.50;;
18796;SDS011;9526;52.612;13.300;2024-02-16T05:10:53;27.23;;;12.98;;
18796;SDS011;9526;52.612;13.300;2024-02-16T05:13:17;25.58;;;12.82;;
18796;SDS011;9526;52.612;13.300;2024-02-16T05:15:41;22.17;;;11.95;;
18796;SDS011;9526;52.612;13.300;2024-02-16T05:18:05;24.58;;;12.60;;
18796;SDS011;9526;52.612;13.300;2024-02-16T05:20:29;22.42;;;11.52;;
18796;SDS011;9526;52.612;13.300;2024-02-16T05:22:53;20.40;;;10.73;;
18796;SDS011;9526;52.612;13.300;2024-02-16T05:25:18;19.88;;;11.27;;
18796;SDS011;9526;52.612;13.300;2024-02-16T05:27:43;19.15;;;11.38;;
18796;SDS011;9526;52.612;13.300;2024-02-16T05:30:09;19.67;;;11.65;;
18796;SDS011;9526;52.612;13.300;2024-02-16T05:32:38;21.15;;;11.55;;
18796;SDS011;9526;52.612;13.300;2024-02-16T05:35:02;21.15;;;10.45;;
18796;SDS011;9526;52.612;13.300;2024-02-16T05:37:33;21.95;;;11.23;;
18796;SDS011;9526;52.612;13.300;2024-02-16T05:39:56;20.20;;;11.18;;
18796;SDS011;9526;52.612;13.300;2024-02-16T05:42:30;21.42;;;11.05;;
18796;SDS011;9526;52.612;13.300;2024-02-16T05:44:55;22.13;;;10.95;;
18796;SDS011;9526;52.612;13.300;2024-02-16T05:47:20;19.42;;;10.65;;
18796;SDS011;9526;52.612;13.300;2024-02-16T05:49:45;23.48;;;11.27;;
18796;SDS011;9526;52.612;13.300;2024-02-16T05:52:09;25.38;;;11.45;;
18796;SDS011;9526;52.612;13.300;2024-02-16T05:54:42;18.50;;;10.60;;
18796;SDS011;9526;52.612;13.300;2024-02-16T05:57:06;22.30;;;11.10;;
18796;SDS011;9526;52.612;13.300;2024-02-16T05:59:30;22.02;;;10.48;;
18796;SDS011;9526;52.612;13.300;2024-02-16T06:01:56;22.58;;;10.52;;
18796;SDS011;9526;52.612;13.300;2024-02-16T06:04:20;28.80;;;11.38;;
18796;SDS011;9526;52.612;13.300;2024-02-16T06:06:44;19.33;;;10.80;;
18796;SDS011;9526;52.612;13.300;2024-02-16T06:09:08;21.10;;;10.88;;
18796;SDS011;9526;52.612;13.300;2024-02-16T06:11:32;20.80;;;10.50;;
18796;SDS011;9526;52.612;13.300;2024-02-16T06:13:56;21.65;;;11.02;;
18796;SDS011;9526;52.612;13.300;2024-02-16T06:16:20;19.10;;;10.50;;
18796;SDS011;9526;52.612;13.300;2024-02-16T06:18:45;21.33;;;10.45;;
18796;SDS011;9526;52.612;13.300;2024-02-16T06:21:11;21.30;;;10.45;;
18796;SDS011;9526;52.612;13.300;2024-02-16T06:23:35;20.92;;;10.43;;
18796;SDS011;9526;52.612;13.300;2024-02-16T06:25:59;24.02;;;11.60;;
18796;SDS011;9526;52.612;13.300;2024-02-16T06:28:23;17.35;;;10.35;;
18796;SDS011;9526;52.612;13.300;2024-02-16T06:30:46;19.08;;;9.60;;
18796;SDS011;9526;52.612;13.300;2024-02-16T06:33:10;20.27;;;10.55;;
18796;SDS011;9526;52.612;13.300;2024-02-16T06:35:35;19.95;;;10.27;;
18796;SDS011;9526;52.612;13.300;2024-02-16T06:37:59;20.90;;;10.57;;
18796;SDS011;9526;52.612;13.300;2024-02-16T06:40:22;24.17;;;10.68;;
18796;SDS011;9526;52.612;13.300;2024-02-16T06:42:47;20.27;;;10.07;;
18796;SDS011;9526;52.612;13.300;2024-02-16T06:45:11;21.58;;;10.50;;
18796;SDS011;9526;52.612;13.300;2024-02-16T06:47:35;21.50;;;10.40;;
18796;SDS011;9526;52.612;13.300;2024-02-16T06:49:59;20.15;;;10.40;;
18796;SDS011;9526;52.612;13.300;2024-02-16T06:52:24;21.88;;;10.75;;
18796;SDS011;9526;52.612;13.300;2024-02-16T06:54:49;20.67;;;10.90;;
18796;SDS011;9526;52.612;13.300;2024-02-16T06:57:13;22.83;;;11.25;;
18796;SDS011;9526;52.612;13.300;2024-02-16T06:59:36;18.17;;;9.50;;
18796;SDS011;9526;52.612;13.300;2024-02-16T07:01:59;21.38;;;10.38;;
18796;SDS011;9526;52.612;13.300;2024-02-16T07:04:23;18.83;;;9.88;;
18796;SDS011;9526;52.612;13.300;2024-02-16T07:06:47;18.90;;;9.98;;
18796;SDS011;9526;52.612;13.300;2024-02-16T07:09:13;17.77;;;9.85;;
18796;SDS011;9526;52.612;13.300;2024-02-16T07:11:37;18.75;;;10.40;;
18796;SDS011;9526;52.612;13.300;2024-02-16T07:14:01;19.98;;;10.82;;
18796;SDS011;9526;52.612;13.300;2024-02-16T07:16:25;18.95;;;9.32;;
18796;SDS011;9526;52.612;13.300;2024-02-16T07:18:49;20.25;;;10.27;;
18796;SDS011;9526;52.612;13.300;2024-02-16T07:21:13;22.10;;;10.32;;
18796;SDS011;9526;52.612;13.300;2024-02-16T07:23:38;18.40;;;11.40;;
18796;SDS011;9526;52.612;13.300;2024-02-16T07:26:03;18.48;;;9.68;;
18796;SDS011;9526;52.612;13.300;2024-02-16T07:28:29;20.55;;;10.95;;
18796;SDS011;9526;52.612;13.300;2024-02-16T07:30:53;18.58;;;10.18;;
18796;SDS011;9526;52.612;13.300;2024-02-16T07:33:17;22.40;;;10.77;;
18796;SDS011;9526;52.612;13.300;2024-02-16T07:35:42;27.27;;;10.70;;
18796;SDS011;9526;52.612;13.300;2024-02-16T07:38:05;21.40;;;10.57;;
18796;SDS011;9526;52.612;13.300;2024-02-16T07:40:30;15.93;;;8.70;;
18796;SDS011;9526;52.612;13.300;2024-02-16T07:42:55;20.45;;;9.77;;
18796;SDS011;9526;52.612;13.300;2024-02-16T07:45:19;26.27;;;10.52;;
18796;SDS011;9526;52.612;13.300;2024-02-16T07:47:43;23.33;;;10.80;;
18796;SDS011;9526;52.612;13.300;2024-02-16T07:50:07;19.15;;;10.18;;
18796;SDS011;9526;52.612;13.300;2024-02-16T07:52:31;19.35;;;10.20;;
18796;SDS011;9526;52.612;13.300;2024-02-16T07:54:55;20.02;;;9.45;;
18796;SDS011;9526;52.612;13.300;2024-02-16T07:57:19;20.70;;;10.35;;
18796;SDS011;9526;52.612;13.300;2024-02-16T07:59:44;18.92;;;9.73;;
18796;SDS011;9526;52.612;13.300;2024-02-16T08:02:08;18.25;;;9.90;;
18796;SDS011;9526;52.612;13.300;2024-02-16T08:04:36;19.33;;;9.48;;
18796;SDS011;9526;52.612;13.300;2024-02-16T08:07:02;18.25;;;10.02;;
18796;SDS011;9526;52.612;13.300;2024-02-16T08:09:26;17.90;;;9.05;;
18796;SDS011;9526;52.612;13.300;2024-02-16T08:11:50;19.98;;;9.73;;
18796;SDS011;9526;52.612;13.300;2024-02-16T08:14:14;20.30;;;9.52;;
18796;SDS011;9526;52.612;13.300;2024-02-16T08:16:39;15.70;;;9.50;;
18796;SDS011;9526;52.612;13.300;2024-02-16T08:19:03;16.55;;;8.98;;
18796;SDS011;9526;52.612;13.300;2024-02-16T08:21:27;15.98;;;8.93;;
18796;SDS011;9526;52.612;13.300;2024-02-16T08:23:51;18.77;;;8.82;;
18796;SDS011;9526;52.612;13.300;2024-02-16T08:26:14;13.40;;;7.82;;
18796;SDS011;9526;52.612;13.300;2024-02-16T08:28:38;17.17;;;8.00;;
18796;SDS011;9526;52.612;13.300;2024-02-16T08:31:02;13.38;;;8.15;;
18796;SDS011;9526;52.612;13.300;2024-02-16T08:33:27;17.63;;;8.63;;
18796;SDS011;9526;52.612;13.300;2024-02-16T08:35:51;14.55;;;8.57;;
18796;SDS011;9526;52.612;13.300;2024-02-16T08:38:15;18.15;;;8.43;;
18796;SDS011;9526;52.612;13.300;2024-02-16T08:40:39;15.00;;;8.15;;
18796;SDS011;9526;52.612;13.300;2024-02-16T08:43:03;15.85;;;8.38;;
18796;SDS011;9526;52.612;13.300;2024-02-16T08:45:28;12.48;;;7.78;;
18796;SDS011;9526;52.612;13.300;2024-02-16T08:47:52;14.68;;;7.72;;
18796;SDS011;9526;52.612;13.300;2024-02-16T08:50:20;15.80;;;7.47;;
18796;SDS011;9526;52.612;13.300;2024-02-16T08:52:44;15.60;;;7.55;;
18796;SDS011;9526;52.612;13.300;2024-02-16T08:55:08;13.57;;;7.25;;
18796;SDS011;9526;52.612;13.300;2024-02-16T08:57:31;13.02;;;7.03;;
18796;SDS011;9526;52.612;13.300;2024-02-16T08:59:55;14.52;;;7.15;;
18796;SDS011;9526;52.612;13.300;2024-02-16T09:02:19;12.07;;;6.22;;
18796;SDS011;9526;52.612;13.300;2024-02-16T09:04:43;13.32;;;6.80;;
18796;SDS011;9526;52.612;13.300;2024-02-16T09:07:10;11.05;;;6.60;;
18796;SDS011;9526;52.612;13.300;2024-02-16T09:09:34;13.45;;;6.50;;
18796;SDS011;9526;52.612;13.300;2024-02-16T09:11:58;11.38;;;6.38;;
18796;SDS011;9526;52.612;13.300;2024-02-16T09:14:21;11.25;;;6.63;;
18796;SDS011;9526;52.612;13.300;2024-02-16T09:16:48;12.80;;;6.43;;
18796;SDS011;9526;52.612;13.300;2024-02-16T09:19:13;11.73;;;6.15;;
18796;SDS011;9526;52.612;13.300;2024-02-16T09:21:37;10.45;;;6.32;;
18796;SDS011;9526;52.612;13.300;2024-02-16T09:24:02;11.60;;;6.32;;
18796;SDS011;9526;52.612;13.300;2024-02-16T09:26:32;9.90;;;6.15;;
18796;SDS011;9526;52.612;13.300;2024-02-16T09:28:56;9.25;;;5.97;;
18796;SDS011;9526;52.612;13.300;2024-02-16T09:31:20;10.05;;;5.88;;
18796;SDS011;9526;52.612;13.300;2024-02-16T09:33:43;12.48;;;5.50;;
18796;SDS011;9526;52.612;13.300;2024-02-16T09:36:07;8.35;;;5.03;;
18796;SDS011;9526;52.612;13.300;2024-02-16T09:38:31;11.15;;;5.72;;
18796;SDS011;9526;52.612;13.300;2024-02-16T09:40:56;11.63;;;5.80;;
18796;SDS011;9526;52.612;13.300;2024-02-16T09:43:23;8.75;;;5.32;;
18796;SDS011;9526;52.612;13.300;2024-02-16T09:45:51;10.40;;;5.15;;
18796;SDS011;9526;52.612;13.300;2024-02-16T09:48:17;10.18;;;4.95;;
18796;SDS011;9526;52.612;13.300;2024-02-16T09:50:41;7.80;;;4.70;;
18796;SDS011;9526;52.612;13.300;2024-02-16T09:53:05;10.48;;;5.78;;
18796;SDS011;9526;52.612;13.300;2024-02-16T09:55:29;7.85;;;5.00;;
18796;SDS011;9526;52.612;13.300;2024-02-16T09:58:00;7.70;;;4.85;;
18796;SDS011;9526;52.612;13.300;2024-02-16T10:00:26;9.88;;;5.25;;
18796;SDS011;9526;52.612;13.300;2024-02-16T10:02:50;9.95;;;4.65;;
18796;SDS011;9526;52.612;13.300;2024-02-16T10:05:15;8.85;;;4.75;;
18796;SDS011;9526;52.612;13.300;2024-02-16T10:07:40;6.72;;;4.35;;
18796;SDS011;9526;52.612;13.300;2024-02-16T10:10:05;9.75;;;4.90;;
18796;SDS011;9526;52.612;13.300;2024-02-16T10:12:29;8.57;;;4.43;;
18796;SDS011;9526;52.612;13.300;2024-02-16T10:14:55;7.00;;;4.55;;
18796;SDS011;9526;52.612;13.300;2024-02-16T10:17:21;8.55;;;3.97;;
18796;SDS011;9526;52.612;13.300;2024-02-16T10:19:54;5.63;;;3.53;;
18796;SDS011;9526;52.612;13.300;2024-02-16T10:22:19;6.72;;;3.35;;
18796;SDS011;9526;52.612;13.300;2024-02-16T10:24:44;6.20;;;3.67;;
18796;SDS011;9526;52.612;13.300;2024-02-16T10:27:13;5.65;;;3.20;;
18796;SDS011;9526;52.612;13.300;2024-02-16T10:29:39;6.43;;;3.53;;
18796;SDS011;9526;52.612;13.300;2024-02-16T10:32:08;6.85;;;3.38;;
18796;SDS011;9526;52.612;13.300;2024-02-16T10:34:32;6.03;;;3.20;;
18796;SDS011;9526;52.612;13.300;2024-02-16T10:36:58;7.35;;;3.90;;
18796;SDS011;9526;52.612;13.300;2024-02-16T10:39:23;5.72;;;3.47;;
18796;SDS011;9526;52.612;13.300;2024-02-16T10:41:46;5.10;;;3.22;;
18796;SDS011;9526;52.612;13.300;2024-02-16T10:44:12;7.50;;;3.80;;
18796;SDS011;9526;52.612;13.300;2024-02-16T10:46:36;7.03;;;3.80;;
18796;SDS011;9526;52.612;13.300;2024-02-16T10:49:01;8.25;;;4.30;;
18796;SDS011;9526;52.612;13.300;2024-02-16T10:51:30;7.72;;;3.90;;
18796;SDS011;9526;52.612;13.300;2024-02-16T10:53:57;8.13;;;4.00;;
18796;SDS011;9526;52.612;13.300;2024-02-16T10:56:27;7.10;;;3.80;;
18796;SDS011;9526;52.612;13.300;2024-02-16T10:58:55;6.05;;;3.70;;
18796;SDS011;9526;52.612;13.300;2024-02-16T11:01:18;7.75;;;3.97;;
18796;SDS011;9526;52.612;13.300;2024-02-16T11:03:42;6.82;;;4.03;;
18796;SDS011;9526;52.612;13.300;2024-02-16T11:06:15;5.90;;;3.92;;
18796;SDS011;9526;52.612;13.300;2024-02-16T11:08:40;6.63;;;3.83;;
18796;SDS011;9526;52.612;13.300;2024-02-16T11:11:04;10.48;;;4.10;;
18796;SDS011;9526;52.612;13.300;2024-02-16T11:13:31;7.25;;;4.22;;
18796;SDS011;9526;52.612;13.300;2024-02-16T11:15:59;6.88;;;3.80;;
18796;SDS011;9526;52.612;13.300;2024-02-16T11:18:24;8.05;;;3.92;;
18796;SDS011;9526;52.612;13.300;2024-02-16T11:20:48;9.10;;;4.70;;
18796;SDS011;9526;52.612;13.300;2024-02-16T11:23:14;8.05;;;4.10;;
18796;SDS011;9526;52.612;13.300;2024-02-16T11:25:38;6.78;;;3.95;;
18796;SDS011;9526;52.612;13.300;2024-02-16T11:28:03;7.85;;;3.92;;
18796;SDS011;9526;52.612;13.300;2024-02-16T11:30:27;7.40;;;3.88;;
18796;SDS011;9526;52.612;13.300;2024-02-16T11:32:51;6.65;;;3.97;;
18796;SDS011;9526;52.612;13.300;2024-02-16T11:35:15;9.20;;;4.07;;
18796;SDS011;9526;52.612;13.300;2024-02-16T11:37:39;7.53;;;4.25;;
18796;SDS011;9526;52.612;13.300;2024-02-16T11:40:05;6.32;;;3.83;;
18796;SDS011;9526;52.612;13.300;2024-02-16T11:42:30;9.02;;;4.50;;
18796;SDS011;9526;52.612;13.300;2024-02-16T11:44:55;6.35;;;3.70;;
18796;SDS011;9526;52.612;13.300;2024-02-16T11:47:19;7.75;;;4.53;;
18796;SDS011;9526;52.612;13.300;2024-02-16T11:49:49;8.57;;;4.30;;
18796;SDS011;9526;52.612;13.300;2024-02-16T11:52:12;7.35;;;4.07;;
18796;SDS011;9526;52.612;13.300;2024-02-16T11:54:37;6.85;;;4.35;;
18796;SDS011;9526;52.612;13.300;2024-02-16T11:57:02;6.15;;;4.05;;
18796;SDS011;9526;52.612;13.300;2024-02-16T11:59:27;6.32;;;3.72;;
18796;SDS011;9526;52.612;13.300;2024-02-16T12:01:53;8.60;;;4.07;;
18796;SDS011;9526;52.612;13.300;2024-02-16T12:04:22;11.45;;;4.30;;
18796;SDS011;9526;52.612;13.300;2024-02-16T12:06:47;8.05;;;3.70;;
18796;SDS011;9526;52.612;13.300;2024-02-16T12:09:14;8.65;;;4.18;;
18796;SDS011;9526;52.612;13.300;2024-02-16T12:11:39;6.45;;;3.95;;
18796;SDS011;9526;52.612;13.300;2024-02-16T12:14:04;6.32;;;3.78;;
18796;SDS011;9526;52.612;13.300;2024-02-16T12:16:29;6.70;;;3.95;;
18796;SDS011;9526;52.612;13.300;2024-02-16T12:19:01;5.90;;;3.83;;
18796;SDS011;9526;52.612;13.300;2024-02-16T12:21:26;7.07;;;3.67;;
18796;SDS011;9526;52.612;13.300;2024-02-16T12:23:53;10.45;;;3.83;;
18796;SDS011;9526;52.612;13.300;2024-02-16T12:26:17;6.15;;;3.90;;
18796;SDS011;9526;52.612;13.300;2024-02-16T12:28:55;5.63;;;3.15;;
18796;SDS011;9526;52.612;13.300;2024-02-16T12:34:41;5.57;;;3.03;;
18796;SDS011;9526;52.612;13.300;2024-02-16T12:37:14;6.90;;;3.17;;
18796;SDS011;9526;52.612;13.300;2024-02-16T12:39:39;4.93;;;2.70;;
18796;SDS011;9526;52.612;13.300;2024-02-16T12:42:03;4.97;;;2.67;;
18796;SDS011;9526;52.612;13.300;2024-02-16T12:44:27;4.85;;;2.70;;
18796;SDS011;9526;52.612;13.300;2024-02-16T12:46:52;4.28;;;2.78;;
18796;SDS011;9526;52.612;13.300;2024-02-16T12:49:17;3.88;;;2.45;;
18796;SDS011;9526;52.612;13.300;2024-02-16T12:51:43;6.20;;;3.00;;
18796;SDS011;9526;52.612;13.300;2024-02-16T12:54:09;4.43;;;2.75;;
18796;SDS011;9526;52.612;13.300;2024-02-16T12:56:35;5.63;;;2.72;;
18796;SDS011;9526;52.612;13.300;2024-02-16T12:59:01;4.28;;;2.50;;
18796;SDS011;9526;52.612;13.300;2024-02-16T13:01:26;4.93;;;2.20;;
18796;SDS011;9526;52.612;13.300;2024-02-16T13:03:50;6.00;;;2.40;;
18796;SDS011;9526;52.612;13.300;2024-02-16T13:06:15;7.72;;;2.75;;
18796;SDS011;9526;52.612;13.300;2024-02-16T13:08:39;4.72;;;2.60;;
18796;SDS011;9526;52.612;13.300;2024-02-16T13:11:03;4.25;;;2.67;;
18796;SDS011;9526;52.612;13.300;2024-02-16T13:13:27;8.85;;;3.03;;
18796;SDS011;9526;52.612;13.300;2024-02-16T13:15:51;4.68;;;2.75;;
18796;SDS011;9526;52.612;13.300;2024-02-16T13:18:15;5.18;;;2.28;;
18796;SDS011;9526;52.612;13.300;2024-02-16T13:20:39;4.03;;;2.60;;
18796;SDS011;9526;52.612;13.300;2024-02-16T13:23:05;3.42;;;2.33;;
18796;SDS011;9526;52.612;13.300;2024-02-16T13:25:31;4.28;;;2.28;;
18796;SDS011;9526;52.612;13.300;2024-02-16T13:27:55;3.05;;;2.20;;
18796;SDS011;9526;52.612;13.300;2024-02-16T13:30:19;4.95;;;2.30;;
18796;SDS011;9526;52.612;13.300;2024-02-16T13:32:43;4.22;;;2.10;;
18796;SDS011;9526;52.612;13.300;2024-02-16T13:35:07;3.33;;;1.95;;
18796;SDS011;9526;52.612;13.300;2024-02-16T13:37:32;3.15;;;2.03;;
18796;SDS011;9526;52.612;13.300;2024-02-16T13:39:57;3.55;;;1.80;;
18796;SDS011;9526;52.612;13.300;2024-02-16T13:42:23;4.50;;;1.80;;
18796;SDS011;9526;52.612;13.300;2024-02-16T13:44:48;5.43;;;1.90;;
18796;SDS011;9526;52.612;13.300;2024-02-16T13:47:12;4.75;;;2.25;;
18796;SDS011;9526;52.612;13.300;2024-02-16T13:49:40;4.68;;;1.98;;
18796;SDS011;9526;52.612;13.300;2024-02-16T13:52:04;4.38;;;2.20;;
18796;SDS011;9526;52.612;13.300;2024-02-16T13:54:30;4.95;;;2.00;;
18796;SDS011;9526;52.612;13.300;2024-02-16T13:56:55;5.35;;;2.42;;
18796;SDS011;9526;52.612;13.300;2024-02-16T13:59:19;4.13;;;1.67;;
18796;SDS011;9526;52.612;13.300;2024-02-16T14:01:43;5.88;;;2.08;;
18796;SDS011;9526;52.612;13.300;2024-02-16T14:04:07;4.35;;;2.10;;
18796;SDS011;9526;52.612;13.300;2024-02-16T14:06:32;3.83;;;2.08;;
18796;SDS011;9526;52.612;13.300;2024-02-16T14:08:57;3.92;;;2.28;;
18796;SDS011;9526;52.612;13.300;2024-02-16T14:11:20;7.15;;;2.60;;
18796;SDS011;9526;52.612;13.300;2024-02-16T14:13:46;5.57;;;2.08;;
18796;SDS011;9526;52.612;13.300;2024-02-16T14:16:10;4.22;;;1.95;;
18796;SDS011;9526;52.612;13.300;2024-02-16T14:18:34;4.13;;;2.08;;
18796;SDS011;9526;52.612;13.300;2024-02-16T14:20:58;3.20;;;1.95;;